Plano's Hourly Summary for Monday, July 9, 2018
Hour Temp
(f)
RH
(%)
Solar Rad.
(MJ/m2)
Rainfall
(in)
Wind
(mph)
7/9/2018 12:00 AM 81 61 0 0 0.18
7/9/2018 1:00 AM 80 63 0 0 0.3
7/9/2018 2:00 AM 79 65 0 0 0.03
7/9/2018 3:00 AM 78 69 0 0 0.01
7/9/2018 4:00 AM 77 73 0 0 0.3
7/9/2018 5:00 AM 77 75 0 0 0.15
7/9/2018 6:00 AM 77 75 0 0 0.15
7/9/2018 7:00 AM 76 77 0.02 0 0.04
7/9/2018 8:00 AM 77 72 0.27 0 0.07
7/9/2018 9:00 AM 81 64 0.98 0 0.28
7/9/2018 10:00 AM 84 57 1.17 0 0.28
7/9/2018 11:00 AM 84 56 0.92 0 0
7/9/2018 12:00 PM 84 57 0.51 0 0.07
7/9/2018 1:00 PM 81 63 0.57 0 1.04
7/9/2018 2:00 PM 76 77 0.35 1.04 1.37
7/9/2018 3:00 PM 74 88 0.23 0.33 1.36
7/9/2018 4:00 PM 75 91 0.23 0.01 0.03
7/9/2018 5:00 PM 77 92 0.33 0 0.15
7/9/2018 6:00 PM 80 77 0.64 0 0.01
7/9/2018 7:00 PM 82 65 0.69 0 1.87
7/9/2018 8:00 PM 80 66 0.29 0 1.9
7/9/2018 9:00 PM 79 72 0.05 0 1.41
7/9/2018 10:00 PM 78 74 0 0 0.15
7/9/2018 11:00 PM 78 77 0 0 0.05
Data Summary 78 71 7.25 1.38 0.47